createdAt,value
2023-01-30T00:01:29.930Z,3.05
2023-01-30T00:03:56.966Z,3.50
2023-01-30T00:06:24.081Z,3.05
2023-01-30T00:08:51.194Z,2.95
2023-01-30T00:11:22.263Z,2.80
2023-01-30T00:13:50.504Z,3.30
2023-01-30T00:16:18.246Z,3.33
2023-01-30T00:18:45.471Z,2.92
2023-01-30T00:21:14.066Z,2.70
2023-01-30T00:23:41.173Z,3.00
2023-01-30T00:26:09.735Z,2.80
2023-01-30T00:28:36.920Z,2.72
2023-01-30T00:31:03.899Z,2.60
2023-01-30T00:33:30.832Z,2.85
2023-01-30T00:35:57.967Z,2.70
2023-01-30T00:38:25.471Z,2.63
2023-01-30T00:40:52.648Z,2.40
2023-01-30T00:43:39.258Z,2.50
2023-01-30T00:46:50.454Z,2.72
2023-01-30T00:49:17.713Z,2.90
2023-01-30T00:51:44.688Z,2.60
2023-01-30T00:54:11.637Z,2.30
2023-01-30T00:56:38.632Z,2.20
2023-01-30T00:59:05.562Z,2.17
2023-01-30T01:01:32.521Z,2.33
2023-01-30T01:03:59.460Z,2.10
2023-01-30T01:06:26.435Z,2.00
2023-01-30T01:08:53.500Z,2.10
2023-01-30T01:11:26.253Z,1.73
2023-01-30T01:13:58.049Z,2.22
2023-01-30T01:16:25.684Z,1.90
2023-01-30T01:18:52.851Z,2.08
2023-01-30T01:21:20.728Z,2.20
2023-01-30T01:23:58.877Z,2.20
2023-01-30T01:26:26.421Z,2.13
2023-01-30T01:28:57.502Z,2.03
2023-01-30T01:31:24.734Z,2.10
2023-01-30T01:33:52.072Z,1.95
2023-01-30T01:36:42.314Z,2.00
2023-01-30T01:39:06.251Z,2.28
2023-01-30T01:41:33.180Z,1.80
2023-01-30T01:44:11.731Z,1.88
2023-01-30T01:46:40.350Z,1.90
2023-01-30T01:51:57.503Z,1.58
2023-01-30T01:54:32.629Z,1.70
2023-01-30T01:57:03.682Z,1.88
2023-01-30T01:59:39.068Z,1.63
2023-01-30T02:02:11.778Z,1.70
2023-01-30T02:04:59.312Z,1.67
2023-01-30T02:07:26.638Z,1.70
2023-01-30T02:09:53.595Z,1.80
2023-01-30T02:12:20.528Z,1.67
2023-01-30T02:14:48.713Z,1.55
2023-01-30T02:17:15.717Z,1.70
2023-01-30T02:20:15.634Z,1.60
2023-01-30T02:22:42.560Z,1.48
2023-01-30T02:25:44.149Z,1.90
2023-01-30T02:28:16.430Z,1.60
2023-01-30T02:31:06.602Z,1.67
2023-01-30T02:34:11.286Z,1.45
2023-01-30T02:37:15.703Z,1.85
2023-01-30T02:40:08.709Z,1.60
2023-01-30T02:42:56.832Z,1.52
2023-01-30T02:45:41.520Z,1.50
2023-01-30T02:48:13.671Z,1.42
2023-01-30T02:50:47.527Z,1.42
2023-01-30T02:53:14.598Z,1.50
2023-01-30T02:55:42.816Z,1.40
2023-01-30T02:58:09.938Z,2.13
2023-01-30T03:00:56.105Z,1.42
2023-01-30T03:03:35.235Z,1.50
2023-01-30T03:06:47.777Z,1.50
2023-01-30T03:09:46.714Z,1.48
2023-01-30T03:12:16.764Z,1.40
2023-01-30T03:14:55.711Z,1.42
2023-01-30T03:17:24.059Z,1.30
2023-01-30T03:19:51.962Z,1.35
2023-01-30T03:22:20.801Z,1.30
2023-01-30T03:24:48.866Z,1.40
2023-01-30T03:27:16.150Z,1.20
2023-01-30T03:29:43.069Z,1.23
2023-01-30T03:32:10.058Z,1.23
2023-01-30T03:34:37.053Z,1.20
2023-01-30T03:37:04.928Z,1.20
2023-01-30T03:39:31.861Z,1.20
2023-01-30T03:41:58.873Z,1.10
2023-01-30T03:44:25.906Z,1.08
2023-01-30T03:46:53.056Z,1.10
2023-01-30T03:49:20.769Z,1.20
2023-01-30T03:51:47.989Z,1.17
2023-01-30T03:54:15.083Z,1.30
2023-01-30T03:56:42.009Z,1.00
2023-01-30T03:59:09.116Z,1.20
2023-01-30T04:01:36.119Z,1.10
2023-01-30T04:04:03.249Z,1.02
2023-01-30T04:06:30.190Z,1.20
2023-01-30T04:08:57.249Z,1.35
2023-01-30T04:11:24.256Z,1.10
2023-01-30T04:13:51.234Z,1.20
2023-01-30T04:16:23.547Z,1.15
2023-01-30T04:18:50.534Z,1.10
2023-01-30T04:21:17.694Z,1.20
2023-01-30T04:23:44.671Z,1.10
2023-01-30T04:26:13.841Z,1.20
2023-01-30T04:28:40.960Z,1.20
2023-01-30T04:31:08.296Z,1.27
2023-01-30T04:33:35.557Z,0.93
2023-01-30T04:36:04.092Z,1.20
2023-01-30T04:38:32.567Z,1.20
2023-01-30T04:41:00.259Z,1.15
2023-01-30T04:43:28.477Z,1.10
2023-01-30T04:45:55.637Z,1.05
2023-01-30T04:48:24.642Z,1.20
2023-01-30T04:50:53.523Z,0.98
2023-01-30T04:53:20.886Z,1.03
2023-01-30T04:55:47.876Z,1.10
2023-01-30T04:58:15.593Z,1.00
2023-01-30T05:00:42.738Z,1.10
2023-01-30T05:03:09.773Z,0.82
2023-01-30T05:05:36.777Z,0.93
2023-01-30T05:08:04.004Z,1.20
2023-01-30T05:10:31.007Z,1.10
2023-01-30T05:13:03.189Z,1.02
2023-01-30T05:15:30.122Z,0.90
2023-01-30T05:17:57.169Z,1.30
2023-01-30T05:20:24.258Z,1.10
2023-01-30T05:22:51.203Z,0.90
2023-01-30T05:25:18.384Z,0.73
2023-01-30T05:27:45.493Z,1.02
2023-01-30T05:30:12.633Z,0.90
2023-01-30T05:32:39.600Z,1.05
2023-01-30T05:35:07.293Z,1.02
2023-01-30T05:37:34.272Z,0.90
2023-01-30T05:40:01.269Z,1.02
2023-01-30T05:42:28.311Z,1.08
2023-01-30T05:44:55.376Z,0.93
2023-01-30T05:47:22.325Z,1.10
2023-01-30T05:49:49.309Z,0.90
2023-01-30T05:52:16.268Z,0.90
2023-01-30T05:54:43.297Z,1.00
2023-01-30T05:57:10.229Z,0.80
2023-01-30T05:59:37.164Z,0.90
2023-01-30T06:02:04.125Z,0.98
2023-01-30T06:04:31.050Z,1.08
2023-01-30T06:06:57.994Z,0.93
2023-01-30T06:09:24.921Z,0.90
2023-01-30T06:11:53.246Z,0.88
2023-01-30T06:14:20.220Z,0.90
2023-01-30T06:16:47.192Z,1.20
2023-01-30T06:19:14.153Z,0.85
2023-01-30T06:21:41.105Z,1.00
2023-01-30T06:24:08.235Z,0.80
2023-01-30T06:26:35.184Z,0.80
2023-01-30T06:29:02.148Z,0.80
2023-01-30T06:31:29.147Z,1.00
2023-01-30T06:33:56.073Z,0.80
2023-01-30T06:36:23.027Z,0.90
2023-01-30T06:38:49.962Z,0.77
2023-01-30T06:41:16.960Z,0.73
2023-01-30T06:43:43.897Z,0.70
2023-01-30T06:46:10.872Z,0.98
2023-01-30T06:48:37.857Z,0.75
2023-01-30T06:51:05.016Z,0.80
2023-01-30T06:53:32.407Z,0.70
2023-01-30T06:56:01.139Z,0.80
2023-01-30T06:58:28.141Z,0.60
2023-01-30T07:03:22.608Z,0.88
2023-01-30T07:05:49.665Z,0.80
2023-01-30T07:08:16.923Z,0.75
2023-01-30T07:10:44.273Z,0.60
2023-01-30T07:15:39.087Z,0.80
2023-01-30T07:18:06.173Z,0.75
2023-01-30T07:20:33.191Z,0.82
2023-01-30T07:23:00.266Z,0.75
2023-01-30T07:25:28.531Z,0.98
2023-01-30T07:27:58.509Z,1.00
2023-01-30T07:30:26.753Z,0.98
2023-01-30T07:32:55.787Z,6.82
2023-01-30T07:35:24.091Z,14.07
2023-01-30T07:37:51.688Z,13.75
2023-01-30T07:40:19.852Z,12.15
2023-01-30T07:43:16.133Z,10.63
2023-01-30T07:45:45.714Z,8.95
2023-01-30T07:48:17.275Z,8.38
2023-01-30T07:50:44.581Z,8.05
2023-01-30T07:53:13.751Z,7.20
2023-01-30T07:55:40.833Z,6.28
2023-01-30T07:58:08.030Z,6.57
2023-01-30T08:00:35.378Z,5.88
2023-01-30T08:03:02.414Z,5.43
2023-01-30T08:05:29.376Z,5.32
2023-01-30T08:07:57.037Z,5.07
2023-01-30T08:10:24.646Z,4.93
2023-01-30T08:12:51.863Z,4.85
2023-01-30T08:15:20.666Z,4.63
2023-01-30T08:17:58.276Z,15.77
2023-01-30T08:22:55.366Z,17.00
2023-01-30T08:25:22.980Z,15.02
2023-01-30T08:27:50.353Z,12.90
2023-01-30T08:30:18.314Z,13.32
2023-01-30T08:32:45.466Z,10.82
2023-01-30T08:35:12.545Z,10.63
2023-01-30T08:37:42.492Z,10.30
2023-01-30T08:40:10.517Z,9.35
2023-01-30T08:42:37.602Z,8.63
2023-01-30T08:45:04.994Z,8.45
2023-01-30T08:47:32.354Z,8.18
2023-01-30T08:49:59.310Z,21.63
2023-01-30T08:52:26.313Z,20.00
2023-01-30T08:54:53.259Z,18.80
2023-01-30T08:57:20.269Z,17.15
2023-01-30T08:59:47.708Z,15.07
2023-01-30T09:02:14.826Z,13.93
2023-01-30T09:04:41.876Z,12.98
2023-01-30T09:07:17.563Z,12.10
2023-01-30T09:09:44.292Z,11.25
2023-01-30T09:15:19.542Z,9.23
2023-01-30T09:17:46.441Z,9.05
2023-01-30T09:20:13.838Z,8.15
2023-01-30T09:22:40.649Z,8.48
2023-01-30T09:25:08.250Z,8.40
2023-01-30T09:27:45.493Z,8.00
2023-01-30T09:30:12.599Z,6.90
2023-01-30T09:32:39.379Z,7.20
2023-01-30T09:35:06.518Z,7.05
2023-01-30T09:37:36.260Z,6.30
2023-01-30T09:42:53.893Z,7.38
2023-01-30T09:45:35.787Z,11.10
2023-01-30T09:48:11.608Z,11.57
2023-01-30T09:51:06.912Z,10.50
2023-01-30T09:53:50.349Z,8.65
2023-01-30T09:56:17.377Z,7.43
2023-01-30T09:59:00.237Z,7.20
2023-01-30T10:01:38.942Z,6.70
2023-01-30T10:04:29.367Z,6.53
2023-01-30T10:07:22.552Z,6.18
2023-01-30T10:10:12.832Z,6.22
2023-01-30T10:12:51.698Z,4.82
2023-01-30T10:15:33.589Z,6.07
2023-01-30T10:18:25.398Z,17.98
2023-01-30T10:21:10.476Z,25.88
2023-01-30T10:23:56.194Z,25.33
2023-01-30T10:26:53.975Z,22.20
2023-01-30T10:29:25.341Z,16.27
2023-01-30T10:31:59.096Z,13.02
2023-01-30T10:34:29.568Z,11.82
2023-01-30T10:36:59.155Z,10.77
2023-01-30T10:39:55.942Z,9.85
2023-01-30T10:42:32.304Z,9.90
2023-01-30T10:45:09.145Z,11.90
2023-01-30T10:47:51.462Z,12.90
2023-01-30T10:50:40.073Z,11.70
2023-01-30T10:53:42.409Z,10.70
2023-01-30T10:56:51.499Z,9.13
2023-01-30T10:59:55.276Z,7.60
2023-01-30T11:02:31.011Z,8.23
2023-01-30T11:05:08.606Z,12.10
2023-01-30T11:07:35.540Z,20.40
2023-01-30T11:10:02.385Z,17.40
2023-01-30T11:12:29.329Z,16.10
2023-01-30T11:15:08.189Z,13.75
2023-01-30T11:17:42.009Z,13.18
2023-01-30T11:20:25.271Z,11.60
2023-01-30T11:23:04.668Z,11.85
2023-01-30T11:25:32.008Z,11.07
2023-01-30T11:28:05.359Z,10.32
2023-01-30T11:30:36.519Z,9.50
2023-01-30T11:33:53.405Z,7.97
2023-01-30T11:36:28.707Z,7.80
2023-01-30T11:39:04.860Z,7.18
2023-01-30T11:41:58.756Z,7.32
2023-01-30T11:44:37.119Z,6.75
2023-01-30T11:48:04.506Z,6.93
2023-01-30T11:50:49.607Z,6.63
2023-01-30T11:53:21.869Z,6.22
2023-01-30T11:56:02.322Z,6.05
2023-01-30T11:58:34.301Z,5.30
2023-01-30T12:01:01.424Z,5.63
2023-01-30T12:03:29.981Z,4.90
2023-01-30T12:05:58.273Z,4.80
2023-01-30T12:08:41.109Z,4.60
2023-01-30T12:11:26.905Z,4.95
2023-01-30T12:13:57.755Z,5.47
2023-01-30T12:16:32.082Z,4.82
2023-01-30T12:19:03.694Z,4.30
2023-01-30T12:21:46.994Z,4.40
2023-01-30T12:24:32.315Z,8.90
2023-01-30T12:27:07.857Z,18.77
2023-01-30T12:29:37.143Z,20.50
2023-01-30T12:32:16.327Z,20.75
2023-01-30T12:34:46.464Z,18.58
2023-01-30T12:37:25.162Z,16.63
2023-01-30T12:40:16.213Z,14.83
2023-01-30T12:43:04.164Z,12.45
2023-01-30T12:46:09.123Z,11.45
2023-01-30T12:51:49.255Z,8.70
2023-01-30T12:54:22.778Z,8.48
2023-01-30T12:56:59.591Z,8.18
2023-01-30T12:59:36.908Z,7.30
2023-01-30T13:02:16.797Z,7.63
2023-01-30T13:05:37.522Z,24.77
2023-01-30T13:08:12.863Z,24.95
2023-01-30T13:10:40.804Z,22.40
2023-01-30T13:13:28.819Z,20.20
2023-01-30T13:16:06.494Z,16.38
2023-01-30T13:18:45.878Z,15.23
2023-01-30T13:21:36.696Z,12.90
2023-01-30T13:24:22.440Z,11.93
2023-01-30T13:26:50.349Z,11.07
2023-01-30T13:29:26.670Z,9.85
2023-01-30T13:31:59.447Z,10.32
2023-01-30T13:34:28.542Z,8.98
2023-01-30T13:37:18.134Z,8.20
2023-01-30T13:42:27.888Z,7.45
2023-01-30T13:44:55.911Z,7.05
2023-01-30T13:47:50.882Z,7.07
2023-01-30T13:50:33.789Z,7.22
2023-01-30T13:53:29.709Z,6.45
2023-01-30T13:56:06.641Z,6.05
2023-01-30T13:59:00.322Z,5.90
2023-01-30T14:01:59.314Z,5.75
2023-01-30T14:04:41.401Z,5.22
2023-01-30T14:07:33.410Z,6.03
2023-01-30T14:10:08.974Z,4.55
2023-01-30T14:12:48.076Z,4.88
2023-01-30T14:15:15.045Z,5.18
2023-01-30T14:17:58.024Z,4.88
2023-01-30T14:20:29.927Z,4.57
2023-01-30T14:22:58.584Z,4.70
2023-01-30T14:25:25.371Z,4.78
2023-01-30T14:27:54.377Z,4.75
2023-01-30T14:30:56.321Z,4.00
2023-01-30T14:33:23.315Z,4.50
2023-01-30T14:36:02.138Z,4.40
2023-01-30T14:38:33.308Z,3.60
2023-01-30T14:41:00.367Z,4.43
2023-01-30T14:43:50.866Z,3.67
2023-01-30T14:46:19.375Z,4.15
2023-01-30T14:48:53.384Z,33.03
2023-01-30T14:51:37.261Z,41.25
2023-01-30T14:54:16.601Z,39.08
2023-01-30T14:56:51.506Z,34.42
2023-01-30T14:59:20.615Z,29.50
2023-01-30T15:02:17.188Z,27.77
2023-01-30T15:04:48.368Z,25.27
2023-01-30T15:07:37.744Z,22.02
2023-01-30T15:10:50.713Z,21.02
2023-01-30T15:13:44.464Z,18.63
2023-01-30T15:16:41.715Z,18.38
2023-01-30T15:19:39.477Z,16.15
2023-01-30T15:22:06.227Z,15.98
2023-01-30T15:25:16.530Z,13.82
2023-01-30T15:28:04.234Z,14.27
2023-01-30T15:30:40.508Z,12.07
2023-01-30T15:33:29.783Z,12.13
2023-01-30T15:35:57.316Z,11.93
2023-01-30T15:38:42.175Z,11.93
2023-01-30T15:41:09.789Z,11.30
2023-01-30T15:43:51.496Z,10.10
2023-01-30T15:46:21.366Z,9.93
2023-01-30T15:49:03.324Z,9.50
2023-01-30T15:51:31.967Z,9.35
2023-01-30T15:54:00.079Z,9.07
2023-01-30T15:56:29.914Z,8.05
2023-01-30T15:58:58.874Z,8.10
2023-01-30T16:01:26.415Z,8.18
2023-01-30T16:03:53.508Z,7.63
2023-01-30T16:06:37.474Z,8.00
2023-01-30T16:09:06.994Z,7.43
2023-01-30T16:11:42.885Z,7.80
2023-01-30T16:14:14.992Z,7.55
2023-01-30T16:16:48.862Z,7.43
2023-01-30T16:19:26.762Z,8.00
2023-01-30T16:21:59.620Z,7.57
2023-01-30T16:24:32.974Z,7.22
2023-01-30T16:29:46.952Z,6.70
2023-01-30T16:32:14.794Z,6.45
2023-01-30T16:34:41.650Z,6.60
2023-01-30T16:37:20.617Z,5.78
2023-01-30T16:40:23.770Z,5.97
2023-01-30T16:43:23.357Z,5.82
2023-01-30T16:48:20.060Z,5.38
2023-01-30T16:50:47.821Z,5.25
2023-01-30T16:53:18.664Z,5.68
2023-01-30T16:56:02.876Z,5.78
2023-01-30T16:58:34.206Z,5.22
2023-01-30T17:01:03.435Z,5.20
2023-01-30T17:03:37.096Z,5.13
2023-01-30T17:06:12.540Z,5.47
2023-01-30T17:08:52.251Z,5.50
2023-01-30T17:16:46.197Z,5.28
2023-01-30T17:19:14.459Z,5.00
2023-01-30T17:21:48.777Z,4.88
2023-01-30T17:24:18.309Z,4.72
2023-01-30T17:26:46.205Z,5.57
2023-01-30T17:29:23.500Z,4.70
2023-01-30T17:31:51.689Z,5.13
2023-01-30T17:34:19.696Z,4.70
2023-01-30T17:36:47.051Z,4.70
2023-01-30T17:39:18.091Z,4.85
2023-01-30T17:41:46.850Z,4.57
2023-01-30T17:44:14.748Z,5.00
2023-01-30T17:46:46.692Z,4.55
2023-01-30T17:49:21.224Z,3.92
2023-01-30T17:51:48.817Z,4.43
2023-01-30T17:54:20.041Z,4.25
2023-01-30T17:56:55.311Z,4.50
2023-01-30T17:59:22.492Z,4.07
2023-01-30T18:01:51.553Z,4.05
2023-01-30T18:04:19.334Z,4.30
2023-01-30T18:06:48.582Z,53.78
2023-01-30T18:09:18.324Z,59.88
2023-01-30T18:14:12.309Z,74.15
2023-01-30T18:16:39.227Z,72.07
2023-01-30T18:19:09.167Z,61.08
2023-01-30T18:21:38.674Z,59.92
2023-01-30T18:24:06.510Z,55.33
2023-01-30T18:26:33.463Z,53.45
2023-01-30T18:29:00.383Z,55.83
2023-01-30T18:31:29.851Z,52.35
2023-01-30T18:33:57.034Z,53.50
2023-01-30T18:36:24.376Z,53.17
2023-01-30T18:38:51.908Z,51.42
2023-01-30T18:41:28.844Z,50.95
2023-01-30T18:43:58.117Z,49.45
2023-01-30T18:46:25.815Z,48.30
2023-01-30T18:48:52.903Z,45.83
2023-01-30T18:51:22.785Z,45.67
2023-01-30T18:53:51.567Z,45.70
2023-01-30T18:56:23.907Z,43.10
2023-01-30T18:58:52.868Z,41.83
2023-01-30T19:01:22.198Z,38.67
2023-01-30T19:03:49.698Z,39.28
2023-01-30T19:06:20.254Z,37.58
2023-01-30T19:08:47.132Z,33.55
2023-01-30T19:11:34.512Z,33.88
2023-01-30T19:14:01.895Z,48.78
2023-01-30T19:16:30.099Z,81.43
2023-01-30T19:18:57.301Z,82.55
2023-01-30T19:21:24.755Z,82.30
2023-01-30T19:23:53.471Z,83.55
2023-01-30T19:26:21.627Z,80.68
2023-01-30T19:28:49.080Z,74.07
2023-01-30T19:31:18.639Z,69.65
2023-01-30T19:33:47.189Z,66.65
2023-01-30T19:36:15.820Z,64.85
2023-01-30T19:38:43.773Z,57.58
2023-01-30T19:41:14.750Z,56.58
2023-01-30T19:43:42.070Z,52.05
2023-01-30T19:46:11.027Z,50.22
2023-01-30T19:48:39.243Z,49.03
2023-01-30T19:51:19.863Z,45.30
2023-01-30T19:53:50.293Z,41.72
2023-01-30T19:56:18.708Z,40.33
2023-01-30T19:58:45.615Z,37.58
2023-01-30T20:01:14.489Z,39.08
2023-01-30T20:03:42.125Z,37.70
2023-01-30T20:06:14.397Z,34.25
2023-01-30T20:08:42.227Z,33.95
2023-01-30T20:11:12.262Z,31.90
2023-01-30T20:13:41.525Z,86.65
2023-01-30T20:16:11.628Z,82.47
2023-01-30T20:18:40.093Z,77.75
2023-01-30T20:21:10.767Z,71.13
2023-01-30T20:23:38.263Z,66.15
2023-01-30T20:26:07.284Z,60.97
2023-01-30T20:28:35.044Z,58.15
2023-01-30T20:31:18.126Z,54.60
2023-01-30T20:33:45.428Z,50.60
2023-01-30T20:36:14.851Z,49.20
2023-01-30T20:38:43.543Z,45.25
2023-01-30T20:41:22.105Z,43.17
2023-01-30T20:43:55.350Z,40.53
2023-01-30T20:46:27.567Z,38.25
2023-01-30T20:48:56.296Z,36.55
2023-01-30T20:51:28.585Z,35.13
2023-01-30T20:53:58.274Z,33.72
2023-01-30T20:58:52.508Z,31.55
2023-01-30T21:01:22.337Z,30.65
2023-01-30T21:03:50.885Z,30.98
2023-01-30T21:06:41.238Z,28.95
2023-01-30T21:09:21.309Z,27.50
2023-01-30T21:11:49.378Z,27.42
2023-01-30T21:14:16.731Z,27.52
2023-01-30T21:16:43.665Z,26.83
2023-01-30T21:19:13.865Z,27.00
2023-01-30T21:21:53.476Z,28.75
2023-01-30T21:24:23.835Z,81.75
2023-01-30T21:26:50.996Z,73.25
2023-01-30T21:29:20.707Z,66.15
2023-01-30T21:31:47.754Z,59.78
2023-01-30T21:34:14.779Z,53.90
2023-01-30T21:36:42.029Z,47.53
2023-01-30T21:39:31.643Z,45.88
2023-01-30T21:47:07.489Z,37.60
2023-01-30T21:49:34.536Z,39.38
2023-01-30T21:52:01.569Z,35.88
2023-01-30T21:54:28.491Z,35.55
2023-01-30T21:56:55.760Z,34.55
2023-01-30T21:59:22.640Z,33.53
2023-01-30T22:01:49.477Z,31.33
2023-01-30T22:04:16.507Z,32.47
2023-01-30T22:06:44.256Z,29.98
2023-01-30T22:09:15.382Z,30.33
2023-01-30T22:11:42.922Z,30.10
2023-01-30T22:14:13.379Z,29.20
2023-01-30T22:16:40.677Z,27.83
2023-01-30T22:19:07.655Z,28.05
2023-01-30T22:21:37.561Z,27.38
2023-01-30T22:24:05.641Z,25.40
2023-01-30T22:26:34.218Z,26.45
2023-01-30T22:29:02.711Z,25.05
2023-01-30T22:31:34.839Z,28.00
2023-01-30T22:34:02.857Z,55.50
2023-01-30T22:36:31.210Z,66.13
2023-01-30T22:38:58.065Z,58.83
2023-01-30T22:41:26.166Z,52.35
2023-01-30T22:43:55.582Z,45.53
2023-01-30T22:46:27.693Z,46.55
2023-01-30T22:48:54.911Z,43.10
2023-01-30T22:51:22.685Z,38.55
2023-01-30T22:53:52.004Z,38.67
2023-01-30T22:56:23.751Z,35.33
2023-01-30T22:58:50.969Z,36.08
2023-01-30T23:01:20.557Z,33.03
2023-01-30T23:03:49.250Z,32.97
2023-01-30T23:06:17.627Z,29.33
2023-01-30T23:08:47.082Z,29.58
2023-01-30T23:11:18.094Z,29.67
2023-01-30T23:13:46.664Z,28.58
2023-01-30T23:16:15.021Z,27.77
2023-01-30T23:18:58.318Z,26.00
2023-01-30T23:21:36.378Z,25.73
2023-01-30T23:24:10.397Z,25.08
2023-01-30T23:26:39.355Z,23.65
2023-01-30T23:29:08.152Z,23.92
2023-01-30T23:31:36.660Z,22.97
2023-01-30T23:34:06.390Z,23.13
2023-01-30T23:36:34.071Z,24.15
2023-01-30T23:39:01.424Z,23.90
2023-01-30T23:41:30.530Z,22.02
2023-01-30T23:43:58.269Z,20.83
2023-01-30T23:46:31.256Z,21.05
2023-01-30T23:49:02.089Z,21.33
2023-01-30T23:51:30.479Z,32.80
2023-01-30T23:53:58.085Z,45.15
2023-01-30T23:56:27.653Z,46.95
2023-01-30T23:58:54.952Z,40.72
